sensor_id;sensor_type;location;lat;lon;timestamp;temperature;humidity
55064;DHT22;40963;52.168;21.296;2023-03-23T00:01:18;9.90;99.90
55064;DHT22;40963;52.168;21.296;2023-03-23T00:03:51;9.80;99.90
55064;DHT22;40963;52.168;21.296;2023-03-23T00:06:18;9.90;99.90
55064;DHT22;40963;52.168;21.296;2023-03-23T00:08:46;9.80;99.90
55064;DHT22;40963;52.168;21.296;2023-03-23T00:11:20;9.80;99.90
55064;DHT22;40963;52.168;21.296;2023-03-23T00:13:48;9.80;99.90
55064;DHT22;40963;52.168;21.296;2023-03-23T00:16:18;9.80;99.90
55064;DHT22;40963;52.168;21.296;2023-03-23T00:18:48;9.70;99.90
55064;DHT22;40963;52.168;21.296;2023-03-23T00:21:18;9.80;99.90
55064;DHT22;40963;52.168;21.296;2023-03-23T00:23:44;9.70;99.90
55064;DHT22;40963;52.168;21.296;2023-03-23T00:26:11;9.80;99.90
55064;DHT22;40963;52.168;21.296;2023-03-23T00:28:37;9.70;99.90
55064;DHT22;40963;52.168;21.296;2023-03-23T00:31:07;9.70;99.90
55064;DHT22;40963;52.168;21.296;2023-03-23T00:33:35;9.70;99.90
55064;DHT22;40963;52.168;21.296;2023-03-23T00:36:10;9.70;99.90
55064;DHT22;40963;52.168;21.296;2023-03-23T00:38:36;9.70;99.90
55064;DHT22;40963;52.168;21.296;2023-03-23T00:41:02;9.70;99.90
55064;DHT22;40963;52.168;21.296;2023-03-23T00:43:29;9.70;99.90
55064;DHT22;40963;52.168;21.296;2023-03-23T00:45:56;9.70;99.90
55064;DHT22;40963;52.168;21.296;2023-03-23T00:48:23;9.60;99.90
55064;DHT22;40963;52.168;21.296;2023-03-23T00:50:50;9.60;99.90
55064;DHT22;40963;52.168;21.296;2023-03-23T00:53:17;9.60;99.90
55064;DHT22;40963;52.168;21.296;2023-03-23T00:55:44;9.60;99.90
55064;DHT22;40963;52.168;21.296;2023-03-23T00:58:11;9.60;99.90
55064;DHT22;40963;52.168;21.296;2023-03-23T01:00:36;9.60;99.90
55064;DHT22;40963;52.168;21.296;2023-03-23T01:03:03;9.60;99.90
55064;DHT22;40963;52.168;21.296;2023-03-23T01:05:29;9.60;99.90
55064;DHT22;40963;52.168;21.296;2023-03-23T01:07:58;9.60;99.90
55064;DHT22;40963;52.168;21.296;2023-03-23T01:10:24;9.50;99.90
55064;DHT22;40963;52.168;21.296;2023-03-23T01:12:52;9.50;99.90
55064;DHT22;40963;52.168;21.296;2023-03-23T01:15:19;9.50;99.90
55064;DHT22;40963;52.168;21.296;2023-03-23T01:17:46;9.50;99.90
55064;DHT22;40963;52.168;21.296;2023-03-23T01:20:13;9.60;99.90
55064;DHT22;40963;52.168;21.296;2023-03-23T01:22:41;9.50;99.90
55064;DHT22;40963;52.168;21.296;2023-03-23T01:25:08;9.50;99.90
55064;DHT22;40963;52.168;21.296;2023-03-23T01:27:34;9.60;99.90
55064;DHT22;40963;52.168;21.296;2023-03-23T01:30:00;9.50;99.90
55064;DHT22;40963;52.168;21.296;2023-03-23T01:32:26;9.60;99.90
55064;DHT22;40963;52.168;21.296;2023-03-23T01:34:52;9.60;99.90
55064;DHT22;40963;52.168;21.296;2023-03-23T01:37:17;9.50;99.90
55064;DHT22;40963;52.168;21.296;2023-03-23T01:39:43;9.50;99.90
55064;DHT22;40963;52.168;21.296;2023-03-23T01:42:09;9.50;99.90
55064;DHT22;40963;52.168;21.296;2023-03-23T01:47:01;9.50;99.90
55064;DHT22;40963;52.168;21.296;2023-03-23T01:49:36;9.50;99.90
55064;DHT22;40963;52.168;21.296;2023-03-23T01:52:10;9.50;99.90
55064;DHT22;40963;52.168;21.296;2023-03-23T01:54:39;9.50;99.90
55064;DHT22;40963;52.168;21.296;2023-03-23T01:57:15;9.50;99.90
55064;DHT22;40963;52.168;21.296;2023-03-23T01:59:44;9.50;99.90
55064;DHT22;40963;52.168;21.296;2023-03-23T02:02:11;9.50;99.90
55064;DHT22;40963;52.168;21.296;2023-03-23T02:04:38;9.50;99.90
55064;DHT22;40963;52.168;21.296;2023-03-23T02:07:06;9.50;99.90
55064;DHT22;40963;52.168;21.296;2023-03-23T02:09:31;9.50;99.90
55064;DHT22;40963;52.168;21.296;2023-03-23T02:11:57;9.50;99.90
55064;DHT22;40963;52.168;21.296;2023-03-23T02:14:24;9.50;99.90
55064;DHT22;40963;52.168;21.296;2023-03-23T02:17:45;9.50;99.90
55064;DHT22;40963;52.168;21.296;2023-03-23T02:20:06;9.40;99.90
55064;DHT22;40963;52.168;21.296;2023-03-23T02:22:44;9.40;99.90
55064;DHT22;40963;52.168;21.296;2023-03-23T02:33:09;9.30;99.90
55064;DHT22;40963;52.168;21.296;2023-03-23T02:35:44;9.20;99.90
55064;DHT22;40963;52.168;21.296;2023-03-23T02:38:21;9.30;99.90
55064;DHT22;40963;52.168;21.296;2023-03-23T02:40:49;9.20;99.90
55064;DHT22;40963;52.168;21.296;2023-03-23T02:43:18;9.20;99.90
55064;DHT22;40963;52.168;21.296;2023-03-23T02:45:46;9.20;99.90
55064;DHT22;40963;52.168;21.296;2023-03-23T02:48:14;9.20;99.90
55064;DHT22;40963;52.168;21.296;2023-03-23T02:50:44;9.10;99.90
55064;DHT22;40963;52.168;21.296;2023-03-23T02:53:12;9.10;99.90
55064;DHT22;40963;52.168;21.296;2023-03-23T02:55:41;9.10;99.90
55064;DHT22;40963;52.168;21.296;2023-03-23T02:58:09;9.00;99.90
55064;DHT22;40963;52.168;21.296;2023-03-23T03:00:35;9.00;99.90
55064;DHT22;40963;52.168;21.296;2023-03-23T03:03:04;9.00;99.90
55064;DHT22;40963;52.168;21.296;2023-03-23T03:08:37;9.00;99.90
55064;DHT22;40963;52.168;21.296;2023-03-23T03:11:13;9.00;99.90
55064;DHT22;40963;52.168;21.296;2023-03-23T03:13:53;9.00;99.90
55064;DHT22;40963;52.168;21.296;2023-03-23T03:16:32;8.90;99.90
55064;DHT22;40963;52.168;21.296;2023-03-23T03:19:17;8.90;99.90
55064;DHT22;40963;52.168;21.296;2023-03-23T03:21:46;8.90;99.90
55064;DHT22;40963;52.168;21.296;2023-03-23T03:24:15;8.90;99.90
55064;DHT22;40963;52.168;21.296;2023-03-23T03:26:45;8.90;99.90
55064;DHT22;40963;52.168;21.296;2023-03-23T03:29:14;8.90;99.90
55064;DHT22;40963;52.168;21.296;2023-03-23T03:31:43;8.90;99.90
55064;DHT22;40963;52.168;21.296;2023-03-23T03:34:11;8.90;99.90
55064;DHT22;40963;52.168;21.296;2023-03-23T03:36:37;8.90;99.90
55064;DHT22;40963;52.168;21.296;2023-03-23T03:39:04;8.90;99.90
55064;DHT22;40963;52.168;21.296;2023-03-23T03:41:33;8.90;99.90
55064;DHT22;40963;52.168;21.296;2023-03-23T03:43:59;8.80;99.90
55064;DHT22;40963;52.168;21.296;2023-03-23T03:46:25;8.90;99.90
55064;DHT22;40963;52.168;21.296;2023-03-23T03:48:55;8.80;99.90
55064;DHT22;40963;52.168;21.296;2023-03-23T03:51:22;8.80;99.90
55064;DHT22;40963;52.168;21.296;2023-03-23T03:53:47;8.80;99.90
55064;DHT22;40963;52.168;21.296;2023-03-23T03:56:13;8.80;99.90
55064;DHT22;40963;52.168;21.296;2023-03-23T03:58:39;8.80;99.90
55064;DHT22;40963;52.168;21.296;2023-03-23T04:01:08;8.80;99.90
55064;DHT22;40963;52.168;21.296;2023-03-23T04:03:35;8.80;99.90
55064;DHT22;40963;52.168;21.296;2023-03-23T04:06:01;8.70;99.90
55064;DHT22;40963;52.168;21.296;2023-03-23T04:08:28;8.70;99.90
55064;DHT22;40963;52.168;21.296;2023-03-23T04:10:54;8.70;99.90
55064;DHT22;40963;52.168;21.296;2023-03-23T04:13:20;8.70;99.90
55064;DHT22;40963;52.168;21.296;2023-03-23T04:15:46;8.60;99.90
55064;DHT22;40963;52.168;21.296;2023-03-23T04:18:13;8.60;99.90
55064;DHT22;40963;52.168;21.296;2023-03-23T04:20:41;8.60;99.90
55064;DHT22;40963;52.168;21.296;2023-03-23T04:23:08;8.60;99.90
55064;DHT22;40963;52.168;21.296;2023-03-23T04:25:33;8.50;99.90
55064;DHT22;40963;52.168;21.296;2023-03-23T04:28:01;8.50;99.90
55064;DHT22;40963;52.168;21.296;2023-03-23T04:30:27;8.50;99.90
55064;DHT22;40963;52.168;21.296;2023-03-23T04:32:54;8.40;99.90
55064;DHT22;40963;52.168;21.296;2023-03-23T04:35:22;8.50;99.90
55064;DHT22;40963;52.168;21.296;2023-03-23T04:37:51;8.40;99.90
55064;DHT22;40963;52.168;21.296;2023-03-23T04:40:17;8.40;99.90
55064;DHT22;40963;52.168;21.296;2023-03-23T04:42:44;8.40;99.90
55064;DHT22;40963;52.168;21.296;2023-03-23T04:45:16;8.30;99.90
55064;DHT22;40963;52.168;21.296;2023-03-23T04:47:48;8.30;99.90
55064;DHT22;40963;52.168;21.296;2023-03-23T04:50:20;8.30;99.90
55064;DHT22;40963;52.168;21.296;2023-03-23T04:52:47;8.30;99.90
55064;DHT22;40963;52.168;21.296;2023-03-23T04:55:13;8.30;99.90
55064;DHT22;40963;52.168;21.296;2023-03-23T04:57:39;8.30;99.90
55064;DHT22;40963;52.168;21.296;2023-03-23T05:00:06;8.30;99.90
55064;DHT22;40963;52.168;21.296;2023-03-23T05:02:37;8.30;99.90
55064;DHT22;40963;52.168;21.296;2023-03-23T05:05:08;8.30;99.90
55064;DHT22;40963;52.168;21.296;2023-03-23T05:07:36;8.30;99.90
55064;DHT22;40963;52.168;21.296;2023-03-23T05:10:03;8.20;99.90
55064;DHT22;40963;52.168;21.296;2023-03-23T05:12:29;8.30;99.90
55064;DHT22;40963;52.168;21.296;2023-03-23T05:14:55;8.30;99.90
55064;DHT22;40963;52.168;21.296;2023-03-23T05:17:21;8.30;99.90
55064;DHT22;40963;52.168;21.296;2023-03-23T05:19:50;8.30;99.90
55064;DHT22;40963;52.168;21.296;2023-03-23T05:22:17;8.30;99.90
55064;DHT22;40963;52.168;21.296;2023-03-23T05:24:42;8.30;99.90
55064;DHT22;40963;52.168;21.296;2023-03-23T05:27:11;8.40;99.90
55064;DHT22;40963;52.168;21.296;2023-03-23T05:29:37;8.30;99.90
55064;DHT22;40963;52.168;21.296;2023-03-23T05:32:06;8.40;99.90
55064;DHT22;40963;52.168;21.296;2023-03-23T05:34:36;8.40;99.90
55064;DHT22;40963;52.168;21.296;2023-03-23T05:37:02;8.50;99.90
55064;DHT22;40963;52.168;21.296;2023-03-23T05:39:30;8.50;99.90
55064;DHT22;40963;52.168;21.296;2023-03-23T05:41:56;8.60;99.90
55064;DHT22;40963;52.168;21.296;2023-03-23T05:44:22;8.60;99.90
55064;DHT22;40963;52.168;21.296;2023-03-23T05:46:48;8.70;99.90
55064;DHT22;40963;52.168;21.296;2023-03-23T05:49:17;8.70;99.90
55064;DHT22;40963;52.168;21.296;2023-03-23T05:51:46;8.80;99.90
55064;DHT22;40963;52.168;21.296;2023-03-23T05:54:12;8.80;99.90
55064;DHT22;40963;52.168;21.296;2023-03-23T05:56:38;8.90;99.90
55064;DHT22;40963;52.168;21.296;2023-03-23T05:59:04;8.90;99.90
55064;DHT22;40963;52.168;21.296;2023-03-23T06:01:30;9.00;99.90
55064;DHT22;40963;52.168;21.296;2023-03-23T06:03:57;9.00;99.90
55064;DHT22;40963;52.168;21.296;2023-03-23T06:06:24;9.10;99.90
55064;DHT22;40963;52.168;21.296;2023-03-23T06:08:50;9.20;99.90
55064;DHT22;40963;52.168;21.296;2023-03-23T06:11:16;9.30;99.90
55064;DHT22;40963;52.168;21.296;2023-03-23T06:13:41;9.30;99.90
55064;DHT22;40963;52.168;21.296;2023-03-23T06:16:07;9.40;99.90
55064;DHT22;40963;52.168;21.296;2023-03-23T06:18:34;9.50;99.90
55064;DHT22;40963;52.168;21.296;2023-03-23T06:21:02;9.50;99.90
55064;DHT22;40963;52.168;21.296;2023-03-23T06:23:28;9.60;99.90
55064;DHT22;40963;52.168;21.296;2023-03-23T06:25:58;9.70;99.90
55064;DHT22;40963;52.168;21.296;2023-03-23T06:28:24;9.70;99.90
55064;DHT22;40963;52.168;21.296;2023-03-23T06:30:50;9.80;99.90
55064;DHT22;40963;52.168;21.296;2023-03-23T06:33:16;9.80;99.90
55064;DHT22;40963;52.168;21.296;2023-03-23T06:35:42;9.90;99.90
55064;DHT22;40963;52.168;21.296;2023-03-23T06:38:08;10.00;99.90
55064;DHT22;40963;52.168;21.296;2023-03-23T06:40:35;10.00;99.90
55064;DHT22;40963;52.168;21.296;2023-03-23T06:43:01;10.10;99.90
55064;DHT22;40963;52.168;21.296;2023-03-23T06:45:28;10.10;99.90
55064;DHT22;40963;52.168;21.296;2023-03-23T06:47:54;10.20;99.90
55064;DHT22;40963;52.168;21.296;2023-03-23T06:50:19;10.20;99.90
55064;DHT22;40963;52.168;21.296;2023-03-23T06:52:47;10.30;99.90
55064;DHT22;40963;52.168;21.296;2023-03-23T06:55:13;10.40;99.90
55064;DHT22;40963;52.168;21.296;2023-03-23T06:57:40;10.40;99.90
55064;DHT22;40963;52.168;21.296;2023-03-23T07:00:07;10.50;99.90
55064;DHT22;40963;52.168;21.296;2023-03-23T07:02:43;10.60;99.90
55064;DHT22;40963;52.168;21.296;2023-03-23T07:05:10;10.70;99.90
55064;DHT22;40963;52.168;21.296;2023-03-23T07:07:37;10.80;99.90
55064;DHT22;40963;52.168;21.296;2023-03-23T07:10:04;10.90;99.90
55064;DHT22;40963;52.168;21.296;2023-03-23T07:12:30;11.00;99.90
55064;DHT22;40963;52.168;21.296;2023-03-23T07:14:56;11.10;99.90
55064;DHT22;40963;52.168;21.296;2023-03-23T07:17:22;11.20;99.90
55064;DHT22;40963;52.168;21.296;2023-03-23T07:19:48;11.30;99.90
55064;DHT22;40963;52.168;21.296;2023-03-23T07:22:13;11.40;99.90
55064;DHT22;40963;52.168;21.296;2023-03-23T07:24:39;11.50;99.90
55064;DHT22;40963;52.168;21.296;2023-03-23T07:27:05;11.60;99.90
55064;DHT22;40963;52.168;21.296;2023-03-23T07:29:30;11.70;99.90
55064;DHT22;40963;52.168;21.296;2023-03-23T07:32:00;11.80;99.90
55064;DHT22;40963;52.168;21.296;2023-03-23T07:34:27;11.90;99.90
55064;DHT22;40963;52.168;21.296;2023-03-23T07:36:53;12.00;99.90
55064;DHT22;40963;52.168;21.296;2023-03-23T07:39:19;12.10;99.90
55064;DHT22;40963;52.168;21.296;2023-03-23T07:41:45;12.20;99.90
55064;DHT22;40963;52.168;21.296;2023-03-23T07:44:10;12.40;99.90
55064;DHT22;40963;52.168;21.296;2023-03-23T07:46:36;12.60;99.90
55064;DHT22;40963;52.168;21.296;2023-03-23T07:49:02;12.70;99.90
55064;DHT22;40963;52.168;21.296;2023-03-23T07:51:31;12.90;99.90
55064;DHT22;40963;52.168;21.296;2023-03-23T07:53:57;13.10;99.90
55064;DHT22;40963;52.168;21.296;2023-03-23T07:56:23;13.20;98.60
55064;DHT22;40963;52.168;21.296;2023-03-23T07:58:49;13.40;97.10
55064;DHT22;40963;52.168;21.296;2023-03-23T08:01:15;13.60;95.60
55064;DHT22;40963;52.168;21.296;2023-03-23T08:03:42;13.70;94.70
55064;DHT22;40963;52.168;21.296;2023-03-23T08:06:08;13.90;93.90
55064;DHT22;40963;52.168;21.296;2023-03-23T08:08:35;14.00;92.70
55064;DHT22;40963;52.168;21.296;2023-03-23T08:11:03;14.20;91.40
55064;DHT22;40963;52.168;21.296;2023-03-23T08:13:28;14.40;90.80
55064;DHT22;40963;52.168;21.296;2023-03-23T08:15:54;14.70;90.10
55064;DHT22;40963;52.168;21.296;2023-03-23T08:18:20;14.90;88.10
55064;DHT22;40963;52.168;21.296;2023-03-23T08:20:46;15.10;86.00
55064;DHT22;40963;52.168;21.296;2023-03-23T08:23:12;15.20;84.10
55064;DHT22;40963;52.168;21.296;2023-03-23T08:25:38;15.30;82.50
55064;DHT22;40963;52.168;21.296;2023-03-23T08:28:04;15.40;81.50
55064;DHT22;40963;52.168;21.296;2023-03-23T08:30:30;15.40;80.10
55064;DHT22;40963;52.168;21.296;2023-03-23T08:32:58;15.40;79.90
55064;DHT22;40963;52.168;21.296;2023-03-23T08:35:25;15.50;79.00
55064;DHT22;40963;52.168;21.296;2023-03-23T08:37:51;15.50;78.20
55064;DHT22;40963;52.168;21.296;2023-03-23T08:40:19;15.50;78.20
55064;DHT22;40963;52.168;21.296;2023-03-23T08:42:46;15.50;77.70
55064;DHT22;40963;52.168;21.296;2023-03-23T08:45:16;15.60;77.30
55064;DHT22;40963;52.168;21.296;2023-03-23T08:47:43;15.60;77.20
55064;DHT22;40963;52.168;21.296;2023-03-23T08:50:13;15.80;76.70
55064;DHT22;40963;52.168;21.296;2023-03-23T08:52:39;16.00;76.40
55064;DHT22;40963;52.168;21.296;2023-03-23T08:55:05;16.20;75.60
55064;DHT22;40963;52.168;21.296;2023-03-23T08:57:34;16.30;74.80
55064;DHT22;40963;52.168;21.296;2023-03-23T09:00:02;16.60;74.00
55064;DHT22;40963;52.168;21.296;2023-03-23T09:02:38;16.70;72.20
55064;DHT22;40963;52.168;21.296;2023-03-23T09:05:04;16.70;71.20
55064;DHT22;40963;52.168;21.296;2023-03-23T09:07:30;16.70;69.40
55064;DHT22;40963;52.168;21.296;2023-03-23T09:09:56;16.60;69.70
55064;DHT22;40963;52.168;21.296;2023-03-23T09:12:21;16.50;69.70
55064;DHT22;40963;52.168;21.296;2023-03-23T09:14:48;16.40;69.60
55064;DHT22;40963;52.168;21.296;2023-03-23T09:17:14;16.40;69.90
55064;DHT22;40963;52.168;21.296;2023-03-23T09:19:40;16.40;70.00
55064;DHT22;40963;52.168;21.296;2023-03-23T09:22:06;16.40;70.00
55064;DHT22;40963;52.168;21.296;2023-03-23T09:24:33;16.30;70.00
55064;DHT22;40963;52.168;21.296;2023-03-23T09:26:59;16.30;69.80
55064;DHT22;40963;52.168;21.296;2023-03-23T09:29:26;16.30;69.80
55064;DHT22;40963;52.168;21.296;2023-03-23T09:31:53;16.30;69.80
55064;DHT22;40963;52.168;21.296;2023-03-23T09:34:19;16.20;69.40
55064;DHT22;40963;52.168;21.296;2023-03-23T09:36:45;16.20;69.40
55064;DHT22;40963;52.168;21.296;2023-03-23T09:39:11;16.10;69.00
55064;DHT22;40963;52.168;21.296;2023-03-23T09:50:17;15.90;69.30
55064;DHT22;40963;52.168;21.296;2023-03-23T09:52:55;16.00;69.50
55064;DHT22;40963;52.168;21.296;2023-03-23T09:55:21;16.00;69.80
55064;DHT22;40963;52.168;21.296;2023-03-23T09:58:16;16.00;69.60
55064;DHT22;40963;52.168;21.296;2023-03-23T10:00:50;16.10;69.30
55064;DHT22;40963;52.168;21.296;2023-03-23T10:03:20;16.10;69.20
55064;DHT22;40963;52.168;21.296;2023-03-23T10:05:51;16.20;68.90
55064;DHT22;40963;52.168;21.296;2023-03-23T10:08:24;16.20;68.80
55064;DHT22;40963;52.168;21.296;2023-03-23T10:11:11;16.30;69.00
55064;DHT22;40963;52.168;21.296;2023-03-23T10:13:52;16.50;68.90
55064;DHT22;40963;52.168;21.296;2023-03-23T10:16:40;16.60;68.40
55064;DHT22;40963;52.168;21.296;2023-03-23T10:19:10;16.70;68.10
55064;DHT22;40963;52.168;21.296;2023-03-23T10:21:41;16.80;67.80
55064;DHT22;40963;52.168;21.296;2023-03-23T10:24:10;16.90;67.70
55064;DHT22;40963;52.168;21.296;2023-03-23T10:31:39;17.00;67.20
55064;DHT22;40963;52.168;21.296;2023-03-23T10:34:40;17.00;66.30
55064;DHT22;40963;52.168;21.296;2023-03-23T10:37:32;17.10;65.80
55064;DHT22;40963;52.168;21.296;2023-03-23T10:40:04;17.20;66.10
55064;DHT22;40963;52.168;21.296;2023-03-23T10:42:36;17.40;65.80
55064;DHT22;40963;52.168;21.296;2023-03-23T10:45:24;17.50;64.80
55064;DHT22;40963;52.168;21.296;2023-03-23T10:48:20;17.50;64.80
55064;DHT22;40963;52.168;21.296;2023-03-23T10:50:51;17.70;64.70
55064;DHT22;40963;52.168;21.296;2023-03-23T10:53:21;17.70;63.80
55064;DHT22;40963;52.168;21.296;2023-03-23T10:55:49;17.70;63.40
55064;DHT22;40963;52.168;21.296;2023-03-23T10:58:29;17.80;63.60
55064;DHT22;40963;52.168;21.296;2023-03-23T11:01:00;18.00;63.40
55064;DHT22;40963;52.168;21.296;2023-03-23T11:06:29;18.20;62.10
55064;DHT22;40963;52.168;21.296;2023-03-23T11:08:56;18.40;61.20
55064;DHT22;40963;52.168;21.296;2023-03-23T11:11:37;18.60;61.20
55064;DHT22;40963;52.168;21.296;2023-03-23T11:14:26;18.70;60.90
55064;DHT22;40963;52.168;21.296;2023-03-23T11:17:19;18.80;60.60
55064;DHT22;40963;52.168;21.296;2023-03-23T11:19:45;18.90;60.20
55064;DHT22;40963;52.168;21.296;2023-03-23T11:22:24;19.00;59.50
55064;DHT22;40963;52.168;21.296;2023-03-23T11:24:55;18.90;58.30
55064;DHT22;40963;52.168;21.296;2023-03-23T11:27:23;18.90;58.00
55064;DHT22;40963;52.168;21.296;2023-03-23T11:30:10;18.80;57.30
55064;DHT22;40963;52.168;21.296;2023-03-23T11:32:37;18.80;56.70
55064;DHT22;40963;52.168;21.296;2023-03-23T11:35:14;18.70;56.70
55064;DHT22;40963;52.168;21.296;2023-03-23T11:37:43;18.70;56.20
55064;DHT22;40963;52.168;21.296;2023-03-23T11:45:38;18.70;56.70
55064;DHT22;40963;52.168;21.296;2023-03-23T11:50:54;18.70;56.20
55064;DHT22;40963;52.168;21.296;2023-03-23T11:56:11;19.10;55.40
55064;DHT22;40963;52.168;21.296;2023-03-23T11:58:38;19.30;54.80
55064;DHT22;40963;52.168;21.296;2023-03-23T12:15:17;20.10;51.60
55064;DHT22;40963;52.168;21.296;2023-03-23T12:17:51;20.20;50.30
55064;DHT22;40963;52.168;21.296;2023-03-23T12:31:30;20.20;50.10
55064;DHT22;40963;52.168;21.296;2023-03-23T12:40:16;19.90;49.80
55064;DHT22;40963;52.168;21.296;2023-03-23T12:42:56;19.80;50.00
55064;DHT22;40963;52.168;21.296;2023-03-23T12:45:55;19.90;51.00
55064;DHT22;40963;52.168;21.296;2023-03-23T12:48:45;19.90;50.90
55064;DHT22;40963;52.168;21.296;2023-03-23T12:51:33;20.00;50.40
55064;DHT22;40963;52.168;21.296;2023-03-23T12:54:16;19.90;50.90
55064;DHT22;40963;52.168;21.296;2023-03-23T13:02:33;19.80;52.00
55064;DHT22;40963;52.168;21.296;2023-03-23T13:05:11;19.80;51.90
55064;DHT22;40963;52.168;21.296;2023-03-23T13:07:46;19.70;52.00
55064;DHT22;40963;52.168;21.296;2023-03-23T13:10:22;19.70;52.30
55064;DHT22;40963;52.168;21.296;2023-03-23T13:12:51;19.60;52.00
55064;DHT22;40963;52.168;21.296;2023-03-23T13:18:26;19.50;52.30
55064;DHT22;40963;52.168;21.296;2023-03-23T13:21:20;19.40;52.60
55064;DHT22;40963;52.168;21.296;2023-03-23T13:24:03;19.30;52.80
55064;DHT22;40963;52.168;21.296;2023-03-23T13:26:30;19.30;53.10
55064;DHT22;40963;52.168;21.296;2023-03-23T13:28:59;19.30;53.20
55064;DHT22;40963;52.168;21.296;2023-03-23T13:31:35;19.20;53.40
55064;DHT22;40963;52.168;21.296;2023-03-23T13:36:38;19.10;53.90
55064;DHT22;40963;52.168;21.296;2023-03-23T13:39:17;19.00;54.20
55064;DHT22;40963;52.168;21.296;2023-03-23T13:42:17;18.90;54.40
55064;DHT22;40963;52.168;21.296;2023-03-23T13:49:57;18.80;54.80
55064;DHT22;40963;52.168;21.296;2023-03-23T13:52:25;18.80;55.10
55064;DHT22;40963;52.168;21.296;2023-03-23T13:57:52;18.70;55.40
55064;DHT22;40963;52.168;21.296;2023-03-23T14:03:40;18.70;55.70
55064;DHT22;40963;52.168;21.296;2023-03-23T14:06:13;18.60;55.80
55064;DHT22;40963;52.168;21.296;2023-03-23T14:08:43;18.60;55.80
55064;DHT22;40963;52.168;21.296;2023-03-23T14:13:46;18.50;56.10
55064;DHT22;40963;52.168;21.296;2023-03-23T14:16:22;18.50;56.20
55064;DHT22;40963;52.168;21.296;2023-03-23T14:18:53;18.50;56.20
55064;DHT22;40963;52.168;21.296;2023-03-23T14:21:33;18.50;56.90
55064;DHT22;40963;52.168;21.296;2023-03-23T14:24:10;18.50;56.20
55064;DHT22;40963;52.168;21.296;2023-03-23T14:26:37;18.40;56.10
55064;DHT22;40963;52.168;21.296;2023-03-23T14:29:04;18.50;56.20
55064;DHT22;40963;52.168;21.296;2023-03-23T14:31:31;18.40;56.20
55064;DHT22;40963;52.168;21.296;2023-03-23T14:34:03;18.40;56.20
55064;DHT22;40963;52.168;21.296;2023-03-23T14:36:30;18.40;56.30
55064;DHT22;40963;52.168;21.296;2023-03-23T14:39:04;18.40;56.50
55064;DHT22;40963;52.168;21.296;2023-03-23T14:41:31;18.40;56.60
55064;DHT22;40963;52.168;21.296;2023-03-23T14:44:00;18.30;56.70
55064;DHT22;40963;52.168;21.296;2023-03-23T14:46:27;18.30;57.00
55064;DHT22;40963;52.168;21.296;2023-03-23T14:48:54;18.30;57.20
55064;DHT22;40963;52.168;21.296;2023-03-23T14:51:21;18.20;57.10
55064;DHT22;40963;52.168;21.296;2023-03-23T14:53:47;18.20;57.30
55064;DHT22;40963;52.168;21.296;2023-03-23T14:56:22;18.20;57.30
55064;DHT22;40963;52.168;21.296;2023-03-23T14:58:52;18.10;57.30
55064;DHT22;40963;52.168;21.296;2023-03-23T15:01:22;18.10;57.40
55064;DHT22;40963;52.168;21.296;2023-03-23T15:06:27;18.00;57.60
55064;DHT22;40963;52.168;21.296;2023-03-23T15:08:56;18.00;57.70
55064;DHT22;40963;52.168;21.296;2023-03-23T15:11:25;17.90;58.10
55064;DHT22;40963;52.168;21.296;2023-03-23T15:13:57;17.80;58.30
55064;DHT22;40963;52.168;21.296;2023-03-23T15:16:29;17.80;58.90
55064;DHT22;40963;52.168;21.296;2023-03-23T15:19:06;17.70;59.40
55064;DHT22;40963;52.168;21.296;2023-03-23T15:26:51;17.40;60.30
55064;DHT22;40963;52.168;21.296;2023-03-23T15:29:22;17.40;60.50
55064;DHT22;40963;52.168;21.296;2023-03-23T15:31:54;17.40;60.80
55064;DHT22;40963;52.168;21.296;2023-03-23T15:37:02;17.20;61.10
55064;DHT22;40963;52.168;21.296;2023-03-23T15:39:29;17.20;61.20
55064;DHT22;40963;52.168;21.296;2023-03-23T15:41:56;17.10;61.30
55064;DHT22;40963;52.168;21.296;2023-03-23T15:44:24;17.10;61.50
55064;DHT22;40963;52.168;21.296;2023-03-23T15:46:53;17.00;61.60
55064;DHT22;40963;52.168;21.296;2023-03-23T15:49:19;17.00;61.70
55064;DHT22;40963;52.168;21.296;2023-03-23T15:51:46;17.00;62.00
55064;DHT22;40963;52.168;21.296;2023-03-23T15:54:15;17.00;62.00
55064;DHT22;40963;52.168;21.296;2023-03-23T15:56:42;16.90;62.20
55064;DHT22;40963;52.168;21.296;2023-03-23T15:59:09;16.90;62.30
55064;DHT22;40963;52.168;21.296;2023-03-23T16:01:37;16.90;62.40
55064;DHT22;40963;52.168;21.296;2023-03-23T16:04:12;16.80;62.50
55064;DHT22;40963;52.168;21.296;2023-03-23T16:06:39;16.80;62.70
55064;DHT22;40963;52.168;21.296;2023-03-23T16:09:06;16.80;62.90
55064;DHT22;40963;52.168;21.296;2023-03-23T16:11:33;16.70;63.10
55064;DHT22;40963;52.168;21.296;2023-03-23T16:14:00;16.70;63.30
55064;DHT22;40963;52.168;21.296;2023-03-23T16:16:52;16.70;63.50
55064;DHT22;40963;52.168;21.296;2023-03-23T16:19:18;16.60;63.80
55064;DHT22;40963;52.168;21.296;2023-03-23T16:21:44;16.60;63.90
55064;DHT22;40963;52.168;21.296;2023-03-23T16:24:10;16.60;64.10
55064;DHT22;40963;52.168;21.296;2023-03-23T16:26:37;16.60;64.30
55064;DHT22;40963;52.168;21.296;2023-03-23T16:29:15;16.50;64.40
55064;DHT22;40963;52.168;21.296;2023-03-23T16:31:41;16.50;64.70
55064;DHT22;40963;52.168;21.296;2023-03-23T16:34:07;16.50;64.90
55064;DHT22;40963;52.168;21.296;2023-03-23T16:36:33;16.40;64.90
55064;DHT22;40963;52.168;21.296;2023-03-23T16:38:59;16.40;65.10
55064;DHT22;40963;52.168;21.296;2023-03-23T16:41:24;16.30;65.20
55064;DHT22;40963;52.168;21.296;2023-03-23T16:43:50;16.30;65.30
55064;DHT22;40963;52.168;21.296;2023-03-23T16:46:16;16.30;65.40
55064;DHT22;40963;52.168;21.296;2023-03-23T16:48:42;16.20;65.50
55064;DHT22;40963;52.168;21.296;2023-03-23T16:51:08;16.20;65.60
55064;DHT22;40963;52.168;21.296;2023-03-23T16:53:34;16.20;65.90
55064;DHT22;40963;52.168;21.296;2023-03-23T16:56:01;16.20;66.10
55064;DHT22;40963;52.168;21.296;2023-03-23T16:58:26;16.10;66.30
55064;DHT22;40963;52.168;21.296;2023-03-23T17:00:52;16.00;66.60
55064;DHT22;40963;52.168;21.296;2023-03-23T17:03:19;16.00;66.90
55064;DHT22;40963;52.168;21.296;2023-03-23T17:05:48;15.90;67.10
55064;DHT22;40963;52.168;21.296;2023-03-23T17:08:15;15.90;67.40
55064;DHT22;40963;52.168;21.296;2023-03-23T17:10:40;15.80;67.80
55064;DHT22;40963;52.168;21.296;2023-03-23T17:13:07;15.80;68.10
55064;DHT22;40963;52.168;21.296;2023-03-23T17:15:38;15.70;68.30
55064;DHT22;40963;52.168;21.296;2023-03-23T17:18:04;15.70;68.60
55064;DHT22;40963;52.168;21.296;2023-03-23T17:20:31;15.70;68.80
55064;DHT22;40963;52.168;21.296;2023-03-23T17:22:56;15.60;69.00
55064;DHT22;40963;52.168;21.296;2023-03-23T17:25:24;15.60;69.20